Buoy 46930

sailwx.info

Track history (hours):
 
Tides and Currents Weather Stations Pressure Air Temp Water Temp Dewpoint Dewpoint Depression Visibility Wind Speed Wind Dir Waves Ship Positions

Drifting buoy 46930

Last reported at 2017-Jan-20 10:00 UTC. Time now 2017-Jan-20 16:10 UTC.
Position N 19°37' E 170°09'.

Date/timePositionNaut miles runAvg speedWind from/ knotsBaromVisibWave heightAir tempDewpointWater temp
2017-Jan-20 10:00N 19°37' E 170°09'1 0.8
2017-Jan-20 09:00N 19°36' E 170°10'1 0.6
2017-Jan-20 08:00N 19°37' E 170°10'2 2.5
2017-Jan-20 07:00N 19°35' E 170°11'0 0.0
2017-Jan-20 06:00N 19°35' E 170°11'3 1.3
2017-Jan-20 04:00N 19°34' E 170°14'2 2.5
2017-Jan-20 03:00N 19°32' E 170°16'3 0.8
2017-Jan-19 23:00N 19°30' E 170°19'3 3.1
2017-Jan-19 22:00N 19°29' E 170°22'2 1.7
2017-Jan-19 21:00N 19°29' E 170°23'3 1.7
2017-Jan-19 19:00N 19°27' E 170°26'1 0.6
2017-Jan-19 18:00N 19°27' E 170°27'12 1.5
2017-Jan-19 10:00N 19°24' E 170°40'0 0.0
2017-Jan-19 09:00N 19°24' E 170°40'5 2.3
2017-Jan-19 07:00N 19°24' E 170°44'1 0.6
2017-Jan-19 05:00N 19°24' E 170°46'0 0.0
2017-Jan-19 04:00N 19°24' E 170°46'6 0.7
2017-Jan-18 19:00N 19°26' E 170°52'1 0.8
2017-Jan-18 18:00N 19°27' E 170°52'1 0.6
2017-Jan-18 17:00N 19°27' E 170°53'1 0.6
2017-Jan-18 16:00N 19°26' E 170°53'2 0.2
2017-Jan-18 08:00N 19°25' E 170°54'1 0.6
2017-Jan-18 07:00N 19°25' E 170°55'1 0.4
2017-Jan-18 04:00N 19°24' E 170°54'0 0.0
2017-Jan-18 02:00N 19°24' E 170°54'2 0.9
2017-Jan-18 00:00N 19°22' E 170°55'1 0.6
2017-Jan-17 23:00N 19°22' E 170°55'2 0.5
2017-Jan-17 19:00N 19°21' E 170°56'1 0.6
2017-Jan-17 17:00N 19°21' E 170°58'3 0.4
2017-Jan-17 10:00N 19°20' E 171°00'1 0.8
2017-Jan-17 09:00N 19°19' E 170°59'1 0.6
2017-Jan-17 08:00N 19°20' E 170°59'1 0.6
2017-Jan-17 07:00N 19°19' E 170°59'2 0.2
2017-Jan-16 22:00N 19°18' E 171°01'1 0.3
2017-Jan-16 19:00N 19°17' E 171°01'1 0.6
2017-Jan-16 18:00N 19°17' E 171°02'1 0.6
2017-Jan-16 17:00N 19°17' E 171°01'5 0.7
2017-Jan-16 10:00N 19°13' E 171°03'2 0.3
2017-Jan-16 02:00N 19°13' E 171°01'0 0.0
2017-Jan-16 01:00N 19°13' E 171°01'3 0.5
2017-Jan-15 19:00N 19°10' E 171°01'1 0.4
2017-Jan-15 16:00N 19°09' E 171°01'5 0.8
2017-Jan-15 09:00N 19°04' E 171°01'1 0.3
2017-Jan-15 07:00N 19°04' E 171°02'1 0.6
2017-Jan-15 06:00N 19°03' E 171°02'0 0.0
2017-Jan-15 05:00N 19°03' E 171°02'6 0.9
2017-Jan-14 22:00N 18°57' E 171°02'1 0.8
2017-Jan-14 21:00N 18°56' E 171°03'1 0.7
2017-Jan-14 19:00N 18°55' E 171°04'1 0.8
2017-Jan-14 18:00N 18°55' E 171°04'1 1.3
2017-Jan-14 17:00N 18°54' E 171°05'0 0.0
2017-Jan-14 16:00N 18°54' E 171°05'5 1.0
2017-Jan-14 11:00N 18°49' E 171°07'2 1.1
2017-Jan-14 09:00N 18°47' E 171°08'9 0.9
2017-Jan-13 23:00N 18°40' E 171°14'1 0.4
2017-Jan-13 21:00N 18°40' E 171°14'1 1.2
2017-Jan-13 20:00N 18°38' E 171°14'0 0.0
2017-Jan-13 19:00N 18°38' E 171°14'1 1.2
2017-Jan-13 18:00N 18°37' E 171°14'12 1.2
2017-Jan-13 08:00N 18°26' E 171°10'1 1.3
2017-Jan-13 07:00N 18°25' E 171°09'3 1.0
2017-Jan-13 04:00N 18°22' E 171°09'1 1.2
2017-Jan-13 03:00N 18°21' E 171°09'4 0.5
2017-Jan-12 20:00N 18°17' E 171°09'0 0.0
2017-Jan-12 18:00N 18°17' E 171°09'5 0.6
2017-Jan-12 10:00N 18°14' E 171°05'2 1.1
2017-Jan-12 08:00N 18°13' E 171°04'0 0.0
2017-Jan-12 07:00N 18°13' E 171°04'1 1.3
2017-Jan-12 06:00N 18°11' E 171°04'1 0.8
2017-Jan-12 05:00N 18°11' E 171°03'7 1.0
2017-Jan-11 22:00N 18°05' E 170°59'1 0.7
2017-Jan-11 20:00N 18°04' E 170°58'1 0.8
2017-Jan-11 19:00N 18°04' E 170°59'2 1.8
2017-Jan-11 18:00N 18°02' E 170°59'2 0.9
2017-Jan-11 16:00N 18°00' E 170°59'1 0.1
2017-Jan-11 10:00N 17°59' E 170°59'1 0.4
2017-Jan-11 08:00N 18°00' E 170°58'1 0.6
2017-Jan-11 06:00N 17°59' E 170°57'2 0.6
2017-Jan-11 03:00N 17°59' E 170°55'2 0.6
2017-Jan-10 23:00N 17°58' E 170°53'2 0.6
2017-Jan-10 20:00N 17°58' E 170°51'1 0.6
2017-Jan-10 19:00N 17°57' E 170°51'1 0.8
2017-Jan-10 18:00N 17°56' E 170°50'5 0.6
2017-Jan-10 10:00N 17°54' E 170°46'  
Track history (hours):
 
Tides and Currents Weather Stations Pressure Air Temp Water Temp Dewpoint Dewpoint Depression Visibility Wind Speed Wind Dir Waves Ship Positions

Drifting buoy 46930

Last reported at 2017-Jan-20 10:00 UTC. Time now 2017-Jan-20 16:10 UTC.
Position N 19°37' E 170°09'.

Date/timePositionNaut miles runAvg speedWind from/ knotsBaromVisibWave heightAir tempDewpointWater temp
2017-Jan-20 10:00N 19°37' E 170°09'1 0.8
2017-Jan-20 09:00N 19°36' E 170°10'1 0.6
2017-Jan-20 08:00N 19°37' E 170°10'2 2.5
2017-Jan-20 07:00N 19°35' E 170°11'0 0.0
2017-Jan-20 06:00N 19°35' E 170°11'3 1.3
2017-Jan-20 04:00N 19°34' E 170°14'2 2.5
2017-Jan-20 03:00N 19°32' E 170°16'3 0.8
2017-Jan-19 23:00N 19°30' E 170°19'3 3.1
2017-Jan-19 22:00N 19°29' E 170°22'2 1.7
2017-Jan-19 21:00N 19°29' E 170°23'3 1.7
2017-Jan-19 19:00N 19°27' E 170°26'1 0.6
2017-Jan-19 18:00N 19°27' E 170°27'12 1.5
2017-Jan-19 10:00N 19°24' E 170°40'0 0.0
2017-Jan-19 09:00N 19°24' E 170°40'5 2.3
2017-Jan-19 07:00N 19°24' E 170°44'1 0.6
2017-Jan-19 05:00N 19°24' E 170°46'0 0.0
2017-Jan-19 04:00N 19°24' E 170°46'6 0.7
2017-Jan-18 19:00N 19°26' E 170°52'1 0.8
2017-Jan-18 18:00N 19°27' E 170°52'1 0.6
2017-Jan-18 17:00N 19°27' E 170°53'1 0.6
2017-Jan-18 16:00N 19°26' E 170°53'2 0.2
2017-Jan-18 08:00N 19°25' E 170°54'1 0.6
2017-Jan-18 07:00N 19°25' E 170°55'1 0.4
2017-Jan-18 04:00N 19°24' E 170°54'0 0.0
2017-Jan-18 02:00N 19°24' E 170°54'2 0.9
2017-Jan-18 00:00N 19°22' E 170°55'1 0.6
2017-Jan-17 23:00N 19°22' E 170°55'2 0.5
2017-Jan-17 19:00N 19°21' E 170°56'1 0.6
2017-Jan-17 17:00N 19°21' E 170°58'3 0.4
2017-Jan-17 10:00N 19°20' E 171°00'1 0.8
2017-Jan-17 09:00N 19°19' E 170°59'1 0.6
2017-Jan-17 08:00N 19°20' E 170°59'1 0.6
2017-Jan-17 07:00N 19°19' E 170°59'2 0.2
2017-Jan-16 22:00N 19°18' E 171°01'1 0.3
2017-Jan-16 19:00N 19°17' E 171°01'1 0.6
2017-Jan-16 18:00N 19°17' E 171°02'1 0.6
2017-Jan-16 17:00N 19°17' E 171°01'5 0.7
2017-Jan-16 10:00N 19°13' E 171°03'2 0.3
2017-Jan-16 02:00N 19°13' E 171°01'0 0.0
2017-Jan-16 01:00N 19°13' E 171°01'3 0.5
2017-Jan-15 19:00N 19°10' E 171°01'1 0.4
2017-Jan-15 16:00N 19°09' E 171°01'5 0.8
2017-Jan-15 09:00N 19°04' E 171°01'1 0.3
2017-Jan-15 07:00N 19°04' E 171°02'1 0.6
2017-Jan-15 06:00N 19°03' E 171°02'0 0.0
2017-Jan-15 05:00N 19°03' E 171°02'6 0.9
2017-Jan-14 22:00N 18°57' E 171°02'1 0.8
2017-Jan-14 21:00N 18°56' E 171°03'1 0.7
2017-Jan-14 19:00N 18°55' E 171°04'1 0.8
2017-Jan-14 18:00N 18°55' E 171°04'1 1.3
2017-Jan-14 17:00N 18°54' E 171°05'0 0.0
2017-Jan-14 16:00N 18°54' E 171°05'5 1.0
2017-Jan-14 11:00N 18°49' E 171°07'2 1.1
2017-Jan-14 09:00N 18°47' E 171°08'9 0.9
2017-Jan-13 23:00N 18°40' E 171°14'1 0.4
2017-Jan-13 21:00N 18°40' E 171°14'1 1.2
2017-Jan-13 20:00N 18°38' E 171°14'0 0.0
2017-Jan-13 19:00N 18°38' E 171°14'1 1.2
2017-Jan-13 18:00N 18°37' E 171°14'12 1.2
2017-Jan-13 08:00N 18°26' E 171°10'1 1.3
2017-Jan-13 07:00N 18°25' E 171°09'3 1.0
2017-Jan-13 04:00N 18°22' E 171°09'1 1.2
2017-Jan-13 03:00N 18°21' E 171°09'4 0.5
2017-Jan-12 20:00N 18°17' E 171°09'0 0.0
2017-Jan-12 18:00N 18°17' E 171°09'5 0.6
2017-Jan-12 10:00N 18°14' E 171°05'2 1.1
2017-Jan-12 08:00N 18°13' E 171°04'0 0.0
2017-Jan-12 07:00N 18°13' E 171°04'1 1.3
2017-Jan-12 06:00N 18°11' E 171°04'1 0.8
2017-Jan-12 05:00N 18°11' E 171°03'7 1.0
2017-Jan-11 22:00N 18°05' E 170°59'1 0.7
2017-Jan-11 20:00N 18°04' E 170°58'1 0.8
2017-Jan-11 19:00N 18°04' E 170°59'2 1.8
2017-Jan-11 18:00N 18°02' E 170°59'2 0.9
2017-Jan-11 16:00N 18°00' E 170°59'1 0.1
2017-Jan-11 10:00N 17°59' E 170°59'1 0.4
2017-Jan-11 08:00N 18°00' E 170°58'1 0.6
2017-Jan-11 06:00N 17°59' E 170°57'2 0.6
2017-Jan-11 03:00N 17°59' E 170°55'2 0.6
2017-Jan-10 23:00N 17°58' E 170°53'2 0.6
2017-Jan-10 20:00N 17°58' E 170°51'1 0.6
2017-Jan-10 19:00N 17°57' E 170°51'1 0.8
2017-Jan-10 18:00N 17°56' E 170°50'5 0.6
2017-Jan-10 10:00N 17°54' E 170°46'  

Dump ship's entire track history